sensor_id;sensor_type;location;lat;lon;timestamp;P1;durP1;ratioP1;P2;durP2;ratioP2
22026;SDS011;11177;50.966;10.070;2023-02-01T00:00:36;15.50;;;5.38;;
22026;SDS011;11177;50.966;10.070;2023-02-01T00:03:03;14.18;;;5.28;;
22026;SDS011;11177;50.966;10.070;2023-02-01T00:05:31;13.55;;;4.88;;
22026;SDS011;11177;50.966;10.070;2023-02-01T00:07:58;15.70;;;5.18;;
22026;SDS011;11177;50.966;10.070;2023-02-01T00:10:25;12.38;;;5.30;;
22026;SDS011;11177;50.966;10.070;2023-02-01T00:12:52;11.23;;;5.18;;
22026;SDS011;11177;50.966;10.070;2023-02-01T00:15:19;14.85;;;5.25;;
22026;SDS011;11177;50.966;10.070;2023-02-01T00:17:47;14.68;;;5.65;;
22026;SDS011;11177;50.966;10.070;2023-02-01T00:20:14;13.35;;;5.00;;
22026;SDS011;11177;50.966;10.070;2023-02-01T00:22:41;15.52;;;5.57;;
22026;SDS011;11177;50.966;10.070;2023-02-01T00:25:08;11.75;;;5.35;;
22026;SDS011;11177;50.966;10.070;2023-02-01T00:27:35;13.27;;;5.20;;
22026;SDS011;11177;50.966;10.070;2023-02-01T00:30:02;13.80;;;5.28;;
22026;SDS011;11177;50.966;10.070;2023-02-01T00:32:29;11.45;;;5.40;;
22026;SDS011;11177;50.966;10.070;2023-02-01T00:34:58;14.50;;;5.50;;
22026;SDS011;11177;50.966;10.070;2023-02-01T00:37:25;11.40;;;5.18;;
22026;SDS011;11177;50.966;10.070;2023-02-01T00:39:51;13.63;;;5.60;;
22026;SDS011;11177;50.966;10.070;2023-02-01T00:42:21;11.80;;;5.25;;
22026;SDS011;11177;50.966;10.070;2023-02-01T00:44:48;20.30;;;5.57;;
22026;SDS011;11177;50.966;10.070;2023-02-01T00:47:14;12.50;;;5.57;;
22026;SDS011;11177;50.966;10.070;2023-02-01T00:49:41;12.32;;;5.22;;
22026;SDS011;11177;50.966;10.070;2023-02-01T00:52:08;16.25;;;5.20;;
22026;SDS011;11177;50.966;10.070;2023-02-01T00:54:35;16.30;;;5.57;;
22026;SDS011;11177;50.966;10.070;2023-02-01T00:57:03;13.52;;;5.32;;
22026;SDS011;11177;50.966;10.070;2023-02-01T00:59:30;10.35;;;4.50;;
22026;SDS011;11177;50.966;10.070;2023-02-01T01:01:57;13.75;;;5.05;;
22026;SDS011;11177;50.966;10.070;2023-02-01T01:04:23;12.50;;;4.82;;
22026;SDS011;11177;50.966;10.070;2023-02-01T01:06:50;9.35;;;4.70;;
22026;SDS011;11177;50.966;10.070;2023-02-01T01:09:17;11.88;;;5.10;;
22026;SDS011;11177;50.966;10.070;2023-02-01T01:11:46;13.00;;;5.38;;
22026;SDS011;11177;50.966;10.070;2023-02-01T01:14:15;13.18;;;5.15;;
22026;SDS011;11177;50.966;10.070;2023-02-01T01:16:42;12.45;;;5.00;;
22026;SDS011;11177;50.966;10.070;2023-02-01T01:19:09;12.13;;;5.13;;
22026;SDS011;11177;50.966;10.070;2023-02-01T01:21:38;13.43;;;4.90;;
22026;SDS011;11177;50.966;10.070;2023-02-01T01:24:05;14.25;;;4.85;;
22026;SDS011;11177;50.966;10.070;2023-02-01T01:26:32;11.35;;;4.07;;
22026;SDS011;11177;50.966;10.070;2023-02-01T01:28:59;8.90;;;4.40;;
22026;SDS011;11177;50.966;10.070;2023-02-01T01:31:26;11.00;;;4.85;;
22026;SDS011;11177;50.966;10.070;2023-02-01T01:33:55;12.95;;;4.50;;
22026;SDS011;11177;50.966;10.070;2023-02-01T01:36:24;16.95;;;5.32;;
22026;SDS011;11177;50.966;10.070;2023-02-01T01:38:52;11.45;;;4.90;;
22026;SDS011;11177;50.966;10.070;2023-02-01T01:41:21;11.85;;;4.85;;
22026;SDS011;11177;50.966;10.070;2023-02-01T01:46:27;14.55;;;5.20;;
22026;SDS011;11177;50.966;10.070;2023-02-01T01:48:59;11.82;;;4.95;;
22026;SDS011;11177;50.966;10.070;2023-02-01T01:51:58;13.80;;;4.95;;
22026;SDS011;11177;50.966;10.070;2023-02-01T01:54:33;14.07;;;4.90;;
22026;SDS011;11177;50.966;10.070;2023-02-01T01:57:10;10.43;;;4.80;;
22026;SDS011;11177;50.966;10.070;2023-02-01T01:59:40;15.10;;;5.38;;
22026;SDS011;11177;50.966;10.070;2023-02-01T02:02:08;14.50;;;4.93;;
22026;SDS011;11177;50.966;10.070;2023-02-01T02:04:35;11.60;;;4.78;;
22026;SDS011;11177;50.966;10.070;2023-02-01T02:07:20;14.65;;;4.78;;
22026;SDS011;11177;50.966;10.070;2023-02-01T02:09:55;9.77;;;4.28;;
22026;SDS011;11177;50.966;10.070;2023-02-01T02:12:26;14.15;;;5.10;;
22026;SDS011;11177;50.966;10.070;2023-02-01T02:14:54;11.45;;;4.70;;
22026;SDS011;11177;50.966;10.070;2023-02-01T02:17:36;13.38;;;4.85;;
22026;SDS011;11177;50.966;10.070;2023-02-01T02:21:36;10.85;;;5.22;;
22026;SDS011;11177;50.966;10.070;2023-02-01T02:27:12;9.68;;;4.68;;
22026;SDS011;11177;50.966;10.070;2023-02-01T02:32:29;7.22;;;3.33;;
22026;SDS011;11177;50.966;10.070;2023-02-01T02:40:45;12.93;;;4.55;;
22026;SDS011;11177;50.966;10.070;2023-02-01T02:43:24;10.60;;;4.00;;
22026;SDS011;11177;50.966;10.070;2023-02-01T02:46:24;10.43;;;4.07;;
22026;SDS011;11177;50.966;10.070;2023-02-01T02:49:19;10.02;;;4.43;;
22026;SDS011;11177;50.966;10.070;2023-02-01T02:51:50;15.30;;;4.63;;
22026;SDS011;11177;50.966;10.070;2023-02-01T02:54:38;15.48;;;5.00;;
22026;SDS011;11177;50.966;10.070;2023-02-01T02:57:17;12.63;;;5.00;;
22026;SDS011;11177;50.966;10.070;2023-02-01T03:00:18;13.73;;;5.10;;
22026;SDS011;11177;50.966;10.070;2023-02-01T03:03:05;12.93;;;4.60;;
22026;SDS011;11177;50.966;10.070;2023-02-01T03:05:51;10.75;;;4.63;;
22026;SDS011;11177;50.966;10.070;2023-02-01T03:08:26;8.25;;;4.50;;
22026;SDS011;11177;50.966;10.070;2023-02-01T03:11:07;8.35;;;4.63;;
22026;SDS011;11177;50.966;10.070;2023-02-01T03:13:51;10.52;;;4.55;;
22026;SDS011;11177;50.966;10.070;2023-02-01T03:16:30;10.98;;;4.72;;
22026;SDS011;11177;50.966;10.070;2023-02-01T03:19:11;12.27;;;5.20;;
22026;SDS011;11177;50.966;10.070;2023-02-01T03:21:44;9.88;;;5.25;;
22026;SDS011;11177;50.966;10.070;2023-02-01T03:24:22;10.52;;;5.20;;
22026;SDS011;11177;50.966;10.070;2023-02-01T03:27:08;14.55;;;5.43;;
22026;SDS011;11177;50.966;10.070;2023-02-01T03:29:47;12.30;;;5.65;;
22026;SDS011;11177;50.966;10.070;2023-02-01T03:32:23;15.03;;;6.43;;
22026;SDS011;11177;50.966;10.070;2023-02-01T03:34:49;16.02;;;6.10;;
22026;SDS011;11177;50.966;10.070;2023-02-01T03:37:20;20.45;;;7.45;;
22026;SDS011;11177;50.966;10.070;2023-02-01T03:39:53;19.90;;;6.78;;
22026;SDS011;11177;50.966;10.070;2023-02-01T03:42:26;19.77;;;6.88;;
22026;SDS011;11177;50.966;10.070;2023-02-01T03:45:04;18.45;;;6.57;;
22026;SDS011;11177;50.966;10.070;2023-02-01T03:47:37;19.80;;;6.15;;
22026;SDS011;11177;50.966;10.070;2023-02-01T03:50:07;16.40;;;6.32;;
22026;SDS011;11177;50.966;10.070;2023-02-01T03:55:25;21.58;;;7.07;;
22026;SDS011;11177;50.966;10.070;2023-02-01T03:57:55;25.13;;;7.95;;
22026;SDS011;11177;50.966;10.070;2023-02-01T04:00:25;23.15;;;8.23;;
22026;SDS011;11177;50.966;10.070;2023-02-01T04:02:52;19.90;;;7.70;;
22026;SDS011;11177;50.966;10.070;2023-02-01T04:05:20;23.67;;;7.70;;
22026;SDS011;11177;50.966;10.070;2023-02-01T04:07:47;19.52;;;7.38;;
22026;SDS011;11177;50.966;10.070;2023-02-01T04:10:14;17.02;;;6.95;;
22026;SDS011;11177;50.966;10.070;2023-02-01T04:12:44;17.65;;;6.18;;
22026;SDS011;11177;50.966;10.070;2023-02-01T04:15:11;14.25;;;6.15;;
22026;SDS011;11177;50.966;10.070;2023-02-01T04:17:38;22.42;;;6.68;;
22026;SDS011;11177;50.966;10.070;2023-02-01T04:20:05;16.17;;;6.72;;
22026;SDS011;11177;50.966;10.070;2023-02-01T04:22:32;18.33;;;6.90;;
22026;SDS011;11177;50.966;10.070;2023-02-01T04:24:59;17.48;;;6.28;;
22026;SDS011;11177;50.966;10.070;2023-02-01T04:27:25;18.65;;;6.40;;
22026;SDS011;11177;50.966;10.070;2023-02-01T04:29:52;19.23;;;6.43;;
22026;SDS011;11177;50.966;10.070;2023-02-01T04:32:21;15.25;;;6.43;;
22026;SDS011;11177;50.966;10.070;2023-02-01T04:34:47;18.30;;;6.55;;
22026;SDS011;11177;50.966;10.070;2023-02-01T04:37:14;17.42;;;7.10;;
22026;SDS011;11177;50.966;10.070;2023-02-01T04:39:41;17.92;;;6.13;;
22026;SDS011;11177;50.966;10.070;2023-02-01T04:42:08;16.50;;;6.20;;
22026;SDS011;11177;50.966;10.070;2023-02-01T04:44:34;20.73;;;7.75;;
22026;SDS011;11177;50.966;10.070;2023-02-01T04:47:03;16.38;;;7.10;;
22026;SDS011;11177;50.966;10.070;2023-02-01T04:49:29;19.08;;;7.25;;
22026;SDS011;11177;50.966;10.070;2023-02-01T04:51:56;22.15;;;7.25;;
22026;SDS011;11177;50.966;10.070;2023-02-01T04:54:23;21.58;;;7.43;;
22026;SDS011;11177;50.966;10.070;2023-02-01T04:56:49;25.38;;;10.60;;
22026;SDS011;11177;50.966;10.070;2023-02-01T04:59:16;31.83;;;13.65;;
22026;SDS011;11177;50.966;10.070;2023-02-01T05:01:43;25.25;;;9.93;;
22026;SDS011;11177;50.966;10.070;2023-02-01T05:04:13;25.80;;;9.23;;
22026;SDS011;11177;50.966;10.070;2023-02-01T05:06:40;20.35;;;6.85;;
22026;SDS011;11177;50.966;10.070;2023-02-01T05:09:07;17.77;;;6.63;;
22026;SDS011;11177;50.966;10.070;2023-02-01T05:11:33;19.60;;;7.00;;
22026;SDS011;11177;50.966;10.070;2023-02-01T05:14:19;19.05;;;6.47;;
22026;SDS011;11177;50.966;10.070;2023-02-01T05:16:45;15.45;;;5.78;;
22026;SDS011;11177;50.966;10.070;2023-02-01T05:19:12;17.13;;;6.15;;
22026;SDS011;11177;50.966;10.070;2023-02-01T05:21:39;15.10;;;5.47;;
22026;SDS011;11177;50.966;10.070;2023-02-01T05:24:07;16.10;;;5.20;;
22026;SDS011;11177;50.966;10.070;2023-02-01T05:26:39;17.48;;;5.28;;
22026;SDS011;11177;50.966;10.070;2023-02-01T05:29:07;17.35;;;5.40;;
22026;SDS011;11177;50.966;10.070;2023-02-01T05:31:35;14.60;;;4.70;;
22026;SDS011;11177;50.966;10.070;2023-02-01T05:34:02;19.65;;;4.80;;
22026;SDS011;11177;50.966;10.070;2023-02-01T05:36:29;14.68;;;4.50;;
22026;SDS011;11177;50.966;10.070;2023-02-01T05:38:56;14.98;;;4.50;;
22026;SDS011;11177;50.966;10.070;2023-02-01T05:41:23;16.80;;;4.78;;
22026;SDS011;11177;50.966;10.070;2023-02-01T05:43:50;16.58;;;4.28;;
22026;SDS011;11177;50.966;10.070;2023-02-01T05:46:16;16.65;;;3.90;;
22026;SDS011;11177;50.966;10.070;2023-02-01T05:48:43;14.13;;;4.05;;
22026;SDS011;11177;50.966;10.070;2023-02-01T05:51:11;14.07;;;4.00;;
22026;SDS011;11177;50.966;10.070;2023-02-01T05:53:38;14.00;;;4.45;;
22026;SDS011;11177;50.966;10.070;2023-02-01T05:56:05;18.52;;;3.80;;
22026;SDS011;11177;50.966;10.070;2023-02-01T05:58:32;11.93;;;3.90;;
22026;SDS011;11177;50.966;10.070;2023-02-01T06:00:59;11.80;;;3.30;;
22026;SDS011;11177;50.966;10.070;2023-02-01T06:03:26;11.32;;;3.50;;
22026;SDS011;11177;50.966;10.070;2023-02-01T06:05:53;12.65;;;3.42;;
22026;SDS011;11177;50.966;10.070;2023-02-01T06:08:20;13.98;;;3.47;;
22026;SDS011;11177;50.966;10.070;2023-02-01T06:10:47;12.38;;;3.38;;
22026;SDS011;11177;50.966;10.070;2023-02-01T06:13:14;16.80;;;3.60;;
22026;SDS011;11177;50.966;10.070;2023-02-01T06:15:40;12.20;;;3.17;;
22026;SDS011;11177;50.966;10.070;2023-02-01T06:18:09;13.57;;;3.20;;
22026;SDS011;11177;50.966;10.070;2023-02-01T06:20:35;9.75;;;2.92;;
22026;SDS011;11177;50.966;10.070;2023-02-01T06:23:02;12.48;;;3.08;;
22026;SDS011;11177;50.966;10.070;2023-02-01T06:25:29;9.38;;;2.80;;
22026;SDS011;11177;50.966;10.070;2023-02-01T06:27:59;8.85;;;3.03;;
22026;SDS011;11177;50.966;10.070;2023-02-01T06:30:26;9.55;;;2.67;;
22026;SDS011;11177;50.966;10.070;2023-02-01T06:32:53;17.88;;;2.85;;
22026;SDS011;11177;50.966;10.070;2023-02-01T06:35:20;16.30;;;3.10;;
22026;SDS011;11177;50.966;10.070;2023-02-01T06:37:47;12.00;;;3.13;;
22026;SDS011;11177;50.966;10.070;2023-02-01T06:40:14;15.20;;;4.00;;
22026;SDS011;11177;50.966;10.070;2023-02-01T06:42:40;15.52;;;2.65;;
22026;SDS011;11177;50.966;10.070;2023-02-01T06:45:07;11.60;;;3.08;;
22026;SDS011;11177;50.966;10.070;2023-02-01T06:47:34;16.92;;;2.85;;
22026;SDS011;11177;50.966;10.070;2023-02-01T06:50:01;17.77;;;3.55;;
22026;SDS011;11177;50.966;10.070;2023-02-01T06:52:28;9.05;;;2.90;;
22026;SDS011;11177;50.966;10.070;2023-02-01T06:54:55;15.23;;;3.22;;
22026;SDS011;11177;50.966;10.070;2023-02-01T06:57:22;13.18;;;2.88;;
22026;SDS011;11177;50.966;10.070;2023-02-01T06:59:48;13.63;;;3.42;;
22026;SDS011;11177;50.966;10.070;2023-02-01T07:02:15;9.82;;;2.75;;
22026;SDS011;11177;50.966;10.070;2023-02-01T07:04:42;19.27;;;3.45;;
22026;SDS011;11177;50.966;10.070;2023-02-01T07:07:08;15.85;;;3.13;;
22026;SDS011;11177;50.966;10.070;2023-02-01T07:09:35;15.20;;;3.17;;
22026;SDS011;11177;50.966;10.070;2023-02-01T07:12:02;15.23;;;3.00;;
22026;SDS011;11177;50.966;10.070;2023-02-01T07:14:29;15.18;;;3.65;;
22026;SDS011;11177;50.966;10.070;2023-02-01T07:16:55;13.13;;;3.00;;
22026;SDS011;11177;50.966;10.070;2023-02-01T07:19:22;17.83;;;3.70;;
22026;SDS011;11177;50.966;10.070;2023-02-01T07:21:49;14.18;;;2.92;;
22026;SDS011;11177;50.966;10.070;2023-02-01T07:24:15;15.48;;;3.45;;
22026;SDS011;11177;50.966;10.070;2023-02-01T07:26:42;15.45;;;3.13;;
22026;SDS011;11177;50.966;10.070;2023-02-01T07:29:09;18.88;;;3.55;;
22026;SDS011;11177;50.966;10.070;2023-02-01T07:31:36;15.07;;;3.17;;
22026;SDS011;11177;50.966;10.070;2023-02-01T07:34:03;10.20;;;3.35;;
22026;SDS011;11177;50.966;10.070;2023-02-01T07:36:29;7.30;;;3.08;;
22026;SDS011;11177;50.966;10.070;2023-02-01T07:38:57;13.07;;;4.30;;
22026;SDS011;11177;50.966;10.070;2023-02-01T07:41:23;16.25;;;4.80;;
22026;SDS011;11177;50.966;10.070;2023-02-01T07:43:53;15.15;;;4.00;;
22026;SDS011;11177;50.966;10.070;2023-02-01T07:46:20;15.45;;;3.63;;
22026;SDS011;11177;50.966;10.070;2023-02-01T07:48:47;13.77;;;3.28;;
22026;SDS011;11177;50.966;10.070;2023-02-01T07:51:15;17.00;;;3.72;;
22026;SDS011;11177;50.966;10.070;2023-02-01T07:53:43;13.07;;;3.63;;
22026;SDS011;11177;50.966;10.070;2023-02-01T07:56:14;16.23;;;4.20;;
22026;SDS011;11177;50.966;10.070;2023-02-01T07:58:52;17.38;;;4.18;;
22026;SDS011;11177;50.966;10.070;2023-02-01T08:01:21;14.55;;;3.45;;
22026;SDS011;11177;50.966;10.070;2023-02-01T08:03:54;13.93;;;3.72;;
22026;SDS011;11177;50.966;10.070;2023-02-01T08:06:25;16.92;;;3.78;;
22026;SDS011;11177;50.966;10.070;2023-02-01T08:08:53;11.50;;;3.70;;
22026;SDS011;11177;50.966;10.070;2023-02-01T08:11:20;11.02;;;3.75;;
22026;SDS011;11177;50.966;10.070;2023-02-01T08:13:48;16.27;;;4.57;;
22026;SDS011;11177;50.966;10.070;2023-02-01T08:16:16;8.70;;;2.90;;
22026;SDS011;11177;50.966;10.070;2023-02-01T08:18:43;19.35;;;3.88;;
22026;SDS011;11177;50.966;10.070;2023-02-01T08:21:18;16.15;;;4.13;;
22026;SDS011;11177;50.966;10.070;2023-02-01T08:23:48;13.23;;;4.10;;
22026;SDS011;11177;50.966;10.070;2023-02-01T08:26:16;13.52;;;3.55;;
22026;SDS011;11177;50.966;10.070;2023-02-01T08:28:54;13.45;;;3.35;;
22026;SDS011;11177;50.966;10.070;2023-02-01T08:31:23;11.43;;;3.10;;
22026;SDS011;11177;50.966;10.070;2023-02-01T08:33:52;16.25;;;3.75;;
22026;SDS011;11177;50.966;10.070;2023-02-01T08:36:20;16.23;;;3.70;;
22026;SDS011;11177;50.966;10.070;2023-02-01T08:38:48;11.55;;;3.65;;
22026;SDS011;11177;50.966;10.070;2023-02-01T08:41:16;12.65;;;3.70;;
22026;SDS011;11177;50.966;10.070;2023-02-01T08:43:44;17.33;;;3.97;;
22026;SDS011;11177;50.966;10.070;2023-02-01T08:46:11;15.13;;;3.95;;
22026;SDS011;11177;50.966;10.070;2023-02-01T08:48:38;13.77;;;3.90;;
22026;SDS011;11177;50.966;10.070;2023-02-01T08:51:07;12.18;;;3.55;;
22026;SDS011;11177;50.966;10.070;2023-02-01T08:53:35;12.60;;;4.07;;
22026;SDS011;11177;50.966;10.070;2023-02-01T08:56:03;13.90;;;3.70;;
22026;SDS011;11177;50.966;10.070;2023-02-01T08:58:30;13.90;;;3.88;;
22026;SDS011;11177;50.966;10.070;2023-02-01T09:01:01;15.68;;;3.97;;
22026;SDS011;11177;50.966;10.070;2023-02-01T09:03:32;10.45;;;3.53;;
22026;SDS011;11177;50.966;10.070;2023-02-01T09:06:00;16.25;;;3.75;;
22026;SDS011;11177;50.966;10.070;2023-02-01T09:08:30;8.82;;;3.20;;
22026;SDS011;11177;50.966;10.070;2023-02-01T09:10:58;19.55;;;4.15;;
22026;SDS011;11177;50.966;10.070;2023-02-01T09:13:29;10.32;;;3.88;;
22026;SDS011;11177;50.966;10.070;2023-02-01T09:15:56;14.63;;;3.60;;
22026;SDS011;11177;50.966;10.070;2023-02-01T09:18:23;11.65;;;3.40;;
22026;SDS011;11177;50.966;10.070;2023-02-01T09:20:50;8.32;;;3.35;;
22026;SDS011;11177;50.966;10.070;2023-02-01T09:23:17;14.20;;;3.38;;
22026;SDS011;11177;50.966;10.070;2023-02-01T09:25:46;10.52;;;2.95;;
22026;SDS011;11177;50.966;10.070;2023-02-01T09:28:16;12.30;;;3.25;;
22026;SDS011;11177;50.966;10.070;2023-02-01T09:30:44;11.88;;;3.03;;
22026;SDS011;11177;50.966;10.070;2023-02-01T09:33:11;9.75;;;3.22;;
22026;SDS011;11177;50.966;10.070;2023-02-01T09:35:37;16.45;;;3.28;;
22026;SDS011;11177;50.966;10.070;2023-02-01T09:38:04;9.93;;;3.20;;
22026;SDS011;11177;50.966;10.070;2023-02-01T09:40:32;8.18;;;2.95;;
22026;SDS011;11177;50.966;10.070;2023-02-01T09:43:05;11.02;;;2.92;;
22026;SDS011;11177;50.966;10.070;2023-02-01T09:51:23;11.45;;;2.67;;
22026;SDS011;11177;50.966;10.070;2023-02-01T09:53:57;8.00;;;2.92;;
22026;SDS011;11177;50.966;10.070;2023-02-01T09:56:29;11.73;;;3.27;;
22026;SDS011;11177;50.966;10.070;2023-02-01T09:59:09;11.13;;;3.13;;
22026;SDS011;11177;50.966;10.070;2023-02-01T10:01:45;8.20;;;2.80;;
22026;SDS011;11177;50.966;10.070;2023-02-01T10:04:13;10.15;;;2.90;;
22026;SDS011;11177;50.966;10.070;2023-02-01T10:06:44;9.82;;;2.80;;
22026;SDS011;11177;50.966;10.070;2023-02-01T10:10:11;9.68;;;2.67;;
22026;SDS011;11177;50.966;10.070;2023-02-01T10:15:46;12.60;;;2.90;;
22026;SDS011;11177;50.966;10.070;2023-02-01T10:21:09;9.75;;;2.78;;
22026;SDS011;11177;50.966;10.070;2023-02-01T10:23:53;10.20;;;2.80;;
22026;SDS011;11177;50.966;10.070;2023-02-01T10:29:14;7.40;;;2.42;;
22026;SDS011;11177;50.966;10.070;2023-02-01T10:31:43;9.40;;;2.88;;
22026;SDS011;11177;50.966;10.070;2023-02-01T10:34:21;11.75;;;3.22;;
22026;SDS011;11177;50.966;10.070;2023-02-01T10:36:53;12.13;;;2.65;;
22026;SDS011;11177;50.966;10.070;2023-02-01T10:39:22;11.52;;;3.03;;
22026;SDS011;11177;50.966;10.070;2023-02-01T10:41:49;6.55;;;2.47;;
22026;SDS011;11177;50.966;10.070;2023-02-01T10:44:20;7.70;;;2.38;;
22026;SDS011;11177;50.966;10.070;2023-02-01T10:46:51;8.88;;;2.30;;
22026;SDS011;11177;50.966;10.070;2023-02-01T10:49:26;8.90;;;2.60;;
22026;SDS011;11177;50.966;10.070;2023-02-01T10:52:18;11.45;;;2.67;;
22026;SDS011;11177;50.966;10.070;2023-02-01T10:54:47;10.25;;;2.50;;
22026;SDS011;11177;50.966;10.070;2023-02-01T10:57:22;6.03;;;2.42;;
22026;SDS011;11177;50.966;10.070;2023-02-01T10:59:52;8.38;;;2.45;;
22026;SDS011;11177;50.966;10.070;2023-02-01T11:02:26;10.88;;;2.90;;
22026;SDS011;11177;50.966;10.070;2023-02-01T11:05:03;12.77;;;2.83;;
22026;SDS011;11177;50.966;10.070;2023-02-01T11:07:36;10.63;;;2.65;;
22026;SDS011;11177;50.966;10.070;2023-02-01T11:10:03;8.52;;;2.80;;
22026;SDS011;11177;50.966;10.070;2023-02-01T11:12:32;8.20;;;2.60;;
22026;SDS011;11177;50.966;10.070;2023-02-01T11:15:12;7.72;;;2.63;;
22026;SDS011;11177;50.966;10.070;2023-02-01T11:17:51;6.63;;;2.50;;
22026;SDS011;11177;50.966;10.070;2023-02-01T11:20:40;9.05;;;2.70;;
22026;SDS011;11177;50.966;10.070;2023-02-01T11:23:13;9.63;;;2.65;;
22026;SDS011;11177;50.966;10.070;2023-02-01T11:25:52;6.05;;;2.55;;
22026;SDS011;11177;50.966;10.070;2023-02-01T11:28:21;11.25;;;2.95;;
22026;SDS011;11177;50.966;10.070;2023-02-01T11:30:50;10.80;;;2.95;;
22026;SDS011;11177;50.966;10.070;2023-02-01T11:33:18;10.30;;;2.80;;
22026;SDS011;11177;50.966;10.070;2023-02-01T11:35:47;12.32;;;3.05;;
22026;SDS011;11177;50.966;10.070;2023-02-01T11:38:51;16.42;;;3.80;;
22026;SDS011;11177;50.966;10.070;2023-02-01T11:41:14;13.13;;;2.95;;
22026;SDS011;11177;50.966;10.070;2023-02-01T11:44:15;12.05;;;3.75;;
22026;SDS011;11177;50.966;10.070;2023-02-01T11:46:45;9.52;;;2.90;;
22026;SDS011;11177;50.966;10.070;2023-02-01T11:54:48;10.52;;;3.13;;
22026;SDS011;11177;50.966;10.070;2023-02-01T11:57:38;10.25;;;3.88;;
22026;SDS011;11177;50.966;10.070;2023-02-01T12:00:44;16.25;;;4.45;;
22026;SDS011;11177;50.966;10.070;2023-02-01T12:03:47;8.70;;;3.38;;
22026;SDS011;11177;50.966;10.070;2023-02-01T12:10:11;10.45;;;3.05;;
22026;SDS011;11177;50.966;10.070;2023-02-01T12:16:00;11.40;;;3.63;;
22026;SDS011;11177;50.966;10.070;2023-02-01T12:21:39;17.23;;;4.00;;
22026;SDS011;11177;50.966;10.070;2023-02-01T12:24:22;18.85;;;4.30;;
22026;SDS011;11177;50.966;10.070;2023-02-01T12:29:28;12.25;;;3.33;;
22026;SDS011;11177;50.966;10.070;2023-02-01T12:32:17;11.90;;;3.53;;
22026;SDS011;11177;50.966;10.070;2023-02-01T12:34:56;9.85;;;3.13;;
22026;SDS011;11177;50.966;10.070;2023-02-01T12:46:12;9.63;;;3.50;;
22026;SDS011;11177;50.966;10.070;2023-02-01T12:51:39;9.60;;;3.30;;
22026;SDS011;11177;50.966;10.070;2023-02-01T12:54:15;9.63;;;3.60;;
22026;SDS011;11177;50.966;10.070;2023-02-01T12:56:53;10.57;;;3.70;;
22026;SDS011;11177;50.966;10.070;2023-02-01T13:02:56;15.45;;;5.18;;
22026;SDS011;11177;50.966;10.070;2023-02-01T13:05:51;12.68;;;5.00;;
22026;SDS011;11177;50.966;10.070;2023-02-01T13:08:28;8.70;;;3.35;;
22026;SDS011;11177;50.966;10.070;2023-02-01T13:11:31;12.60;;;4.20;;
22026;SDS011;11177;50.966;10.070;2023-02-01T13:17:10;13.05;;;4.65;;
22026;SDS011;11177;50.966;10.070;2023-02-01T13:19:54;22.73;;;8.10;;
22026;SDS011;11177;50.966;10.070;2023-02-01T13:22:28;15.90;;;5.73;;
22026;SDS011;11177;50.966;10.070;2023-02-01T13:24:58;17.23;;;5.10;;
22026;SDS011;11177;50.966;10.070;2023-02-01T13:27:28;13.25;;;3.90;;
22026;SDS011;11177;50.966;10.070;2023-02-01T13:30:04;13.40;;;3.88;;
22026;SDS011;11177;50.966;10.070;2023-02-01T13:35:55;10.02;;;3.33;;
22026;SDS011;11177;50.966;10.070;2023-02-01T13:41:52;8.53;;;3.30;;
22026;SDS011;11177;50.966;10.070;2023-02-01T13:44:28;9.35;;;3.17;;
22026;SDS011;11177;50.966;10.070;2023-02-01T13:47:02;7.80;;;3.55;;
22026;SDS011;11177;50.966;10.070;2023-02-01T13:49:31;10.15;;;3.17;;
22026;SDS011;11177;50.966;10.070;2023-02-01T13:51:59;8.00;;;2.95;;
22026;SDS011;11177;50.966;10.070;2023-02-01T13:54:28;12.35;;;3.05;;
22026;SDS011;11177;50.966;10.070;2023-02-01T13:57:00;9.73;;;2.90;;
22026;SDS011;11177;50.966;10.070;2023-02-01T14:02:46;9.70;;;3.22;;
22026;SDS011;11177;50.966;10.070;2023-02-01T14:10:54;13.80;;;3.80;;
22026;SDS011;11177;50.966;10.070;2023-02-01T14:13:33;13.02;;;3.63;;
22026;SDS011;11177;50.966;10.070;2023-02-01T14:18:57;14.10;;;3.65;;
22026;SDS011;11177;50.966;10.070;2023-02-01T14:21:32;11.98;;;3.47;;
22026;SDS011;11177;50.966;10.070;2023-02-01T14:24:04;11.00;;;2.88;;
22026;SDS011;11177;50.966;10.070;2023-02-01T14:26:44;13.55;;;4.13;;
22026;SDS011;11177;50.966;10.070;2023-02-01T14:29:31;8.80;;;4.40;;
22026;SDS011;11177;50.966;10.070;2023-02-01T14:32:34;13.93;;;3.65;;
22026;SDS011;11177;50.966;10.070;2023-02-01T14:35:19;9.85;;;3.25;;
22026;SDS011;11177;50.966;10.070;2023-02-01T14:37:52;9.35;;;3.40;;
22026;SDS011;11177;50.966;10.070;2023-02-01T14:40:23;8.68;;;2.70;;
22026;SDS011;11177;50.966;10.070;2023-02-01T14:42:52;7.13;;;2.63;;
22026;SDS011;11177;50.966;10.070;2023-02-01T14:51:08;8.43;;;2.40;;
22026;SDS011;11177;50.966;10.070;2023-02-01T14:53:42;9.23;;;2.72;;
22026;SDS011;11177;50.966;10.070;2023-02-01T14:56:12;10.55;;;2.78;;
22026;SDS011;11177;50.966;10.070;2023-02-01T15:01:35;4.80;;;1.90;;
22026;SDS011;11177;50.966;10.070;2023-02-01T15:04:06;6.85;;;2.20;;
22026;SDS011;11177;50.966;10.070;2023-02-01T15:06:41;13.57;;;2.83;;
22026;SDS011;11177;50.966;10.070;2023-02-01T15:09:23;10.15;;;2.50;;
22026;SDS011;11177;50.966;10.070;2023-02-01T15:14:27;7.32;;;1.92;;
22026;SDS011;11177;50.966;10.070;2023-02-01T15:16:55;5.47;;;1.95;;
22026;SDS011;11177;50.966;10.070;2023-02-01T15:19:26;9.20;;;1.98;;
22026;SDS011;11177;50.966;10.070;2023-02-01T15:21:55;7.05;;;2.30;;
22026;SDS011;11177;50.966;10.070;2023-02-01T15:24:24;6.72;;;2.47;;
22026;SDS011;11177;50.966;10.070;2023-02-01T15:27:03;7.25;;;2.47;;
22026;SDS011;11177;50.966;10.070;2023-02-01T15:29:31;8.77;;;2.40;;
22026;SDS011;11177;50.966;10.070;2023-02-01T15:32:15;5.05;;;2.08;;
22026;SDS011;11177;50.966;10.070;2023-02-01T15:34:55;6.63;;;2.28;;
22026;SDS011;11177;50.966;10.070;2023-02-01T15:37:22;7.00;;;2.13;;
22026;SDS011;11177;50.966;10.070;2023-02-01T15:42:54;4.70;;;2.10;;
22026;SDS011;11177;50.966;10.070;2023-02-01T15:45:23;7.85;;;2.00;;
22026;SDS011;11177;50.966;10.070;2023-02-01T15:47:52;13.15;;;4.07;;
22026;SDS011;11177;50.966;10.070;2023-02-01T15:50:24;10.63;;;3.90;;
22026;SDS011;11177;50.966;10.070;2023-02-01T15:52:52;8.65;;;2.95;;
22026;SDS011;11177;50.966;10.070;2023-02-01T15:55:40;6.20;;;2.50;;
22026;SDS011;11177;50.966;10.070;2023-02-01T15:58:12;6.72;;;2.42;;
22026;SDS011;11177;50.966;10.070;2023-02-01T16:00:49;5.50;;;2.45;;
22026;SDS011;11177;50.966;10.070;2023-02-01T16:06:09;8.57;;;2.60;;
22026;SDS011;11177;50.966;10.070;2023-02-01T16:08:37;6.32;;;2.60;;
22026;SDS011;11177;50.966;10.070;2023-02-01T16:11:21;8.00;;;2.75;;
22026;SDS011;11177;50.966;10.070;2023-02-01T16:13:49;5.18;;;2.22;;
22026;SDS011;11177;50.966;10.070;2023-02-01T16:16:16;5.20;;;3.17;;
22026;SDS011;11177;50.966;10.070;2023-02-01T16:18:43;3.60;;;2.33;;
22026;SDS011;11177;50.966;10.070;2023-02-01T16:21:11;2.97;;;2.00;;
22026;SDS011;11177;50.966;10.070;2023-02-01T16:23:37;4.65;;;1.83;;
22026;SDS011;11177;50.966;10.070;2023-02-01T16:26:04;4.28;;;1.83;;
22026;SDS011;11177;50.966;10.070;2023-02-01T16:28:32;4.78;;;2.03;;
22026;SDS011;11177;50.966;10.070;2023-02-01T16:30:59;4.53;;;1.80;;
22026;SDS011;11177;50.966;10.070;2023-02-01T16:33:27;6.35;;;2.50;;
22026;SDS011;11177;50.966;10.070;2023-02-01T16:35:55;4.22;;;1.70;;